Time;durP1;ratioP1;P1;durP2;ratioP2;P2;SDS_P1;SDS_P2;PMS_P1;PMS_P2;Temp;Humidity;BMP_temperature;BMP_pressure;BME280_temperature;BME280_humidity;BME280_pressure;Samples;Min_cycle;Max_cycle;Signal;HPM_P1;HPM_P2
2021/08/09 00:01:08;;;;;;;;;4.75;3.00;;;;;23.41;46.30;100742.31;6341781;22;46248;-85
2021/08/09 00:03:33;;;;;;;;;2.50;2.50;;;;;23.44;45.61;100759.97;6262046;22;45413;-85
2021/08/09 00:05:59;;;;;;;;;3.50;3.50;;;;;23.45;47.00;100763.50;6262137;22;45257;-85
2021/08/09 00:08:24;;;;;;;;;3.50;3.00;;;;;23.44;46.74;100754.63;6313993;22;45374;-85
2021/08/09 00:10:50;;;;;;;;;3.25;3.25;;;;;23.35;46.37;100739.94;6287575;22;47211;-85
2021/08/09 00:13:15;;;;;;;;;5.00;3.75;;;;;23.35;46.12;100725.75;6314655;22;45323;-85
2021/08/09 00:15:41;;;;;;;;;3.75;3.75;;;;;23.47;46.64;100740.34;6288245;22;45219;-85
2021/08/09 00:18:06;;;;;;;;;4.00;2.50;;;;;23.46;46.20;100730.63;6288092;22;45206;-85
2021/08/09 00:20:31;;;;;;;;;5.25;3.50;;;;;23.52;46.70;100739.19;6313583;22;46282;-85
2021/08/09 00:22:57;;;;;;;;;3.50;3.00;;;;;23.53;46.86;100732.91;6287516;22;52183;-85
2021/08/09 00:25:22;;;;;;;;;5.00;2.75;;;;;23.44;46.49;100722.66;6314279;22;45264;-85
2021/08/09 00:27:48;;;;;;;;;3.75;2.75;;;;;23.55;46.73;100735.53;6314356;22;45164;-84
2021/08/09 00:30:13;;;;;;;;;3.75;3.75;;;;;23.50;46.46;100733.06;6314322;22;46273;-85
2021/08/09 00:32:39;;;;;;;;;2.00;2.00;;;;;23.57;46.78;100753.19;6288429;22;45156;-86
2021/08/09 00:35:05;;;;;;;;;5.00;4.00;;;;;23.49;47.12;100741.13;6314806;22;45168;-84
2021/08/09 00:37:31;;;;;;;;;4.25;2.25;;;;;23.50;46.85;100750.84;6314146;22;45492;-85
2021/08/09 00:39:56;;;;;;;;;5.00;4.25;;;;;23.50;46.90;100753.50;6314046;22;45901;-85
2021/08/09 00:42:22;;;;;;;;;3.00;3.00;;;;;23.37;46.77;100729.22;6288232;22;45177;-85
2021/08/09 00:44:59;;;;;;;;;5.25;3.00;;;;;23.47;47.00;100749.19;6287562;22;50928;-85
2021/08/09 00:47:27;;;;;;;;;5.25;3.25;;;;;23.38;47.16;100725.63;6288068;22;45437;-85
2021/08/09 00:49:55;;;;;;;;;4.00;3.00;;;;;23.43;47.49;100736.94;6287514;22;47226;-84
2021/08/09 00:52:24;;;;;;;;;5.75;3.75;;;;;23.38;46.93;100733.63;6313674;22;45396;-84
2021/08/09 00:54:49;;;;;;;;;2.75;2.75;;;;;23.32;47.18;100731.22;6313264;22;45268;-85
2021/08/09 00:57:15;;;;;;;;;2.75;2.50;;;;;23.30;47.05;100725.09;6288089;22;45169;-85
2021/08/09 00:59:40;;;;;;;;;5.75;5.00;;;;;23.22;47.42;100714.78;6287347;22;47620;-85
2021/08/09 01:02:06;;;;;;;;;3.00;3.00;;;;;23.22;47.07;100724.56;6287171;22;57596;-85
2021/08/09 01:04:31;;;;;;;;;6.00;3.75;;;;;23.18;47.83;100726.47;6286827;22;54291;-85
2021/08/09 01:06:56;;;;;;;;;5.00;4.00;;;;;23.24;47.54;100726.22;6314268;22;45572;-85
2021/08/09 01:09:25;;;;;;;;;6.50;4.50;;;;;23.29;47.45;100728.69;6260896;22;54018;-85
2021/08/09 01:11:55;;;;;;;;;3.75;3.75;;;;;23.31;47.60;100718.84;6262338;22;45271;-85
2021/08/09 01:14:42;;;;;;;;;4.25;3.25;;;;;23.29;47.02;100716.25;6314560;22;45151;-85
2021/08/09 01:17:07;;;;;;;;;4.50;3.00;;;;;23.21;47.40;100712.19;6340028;22;45108;-85
2021/08/09 01:19:39;;;;;;;;;1.50;1.50;;;;;23.27;47.46;100709.22;6314108;22;45269;-85
2021/08/09 01:22:22;;;;;;;;;4.75;4.00;;;;;23.24;47.77;100706.72;6342026;22;45189;-86
2021/08/09 01:25:19;;;;;;;;;4.00;3.00;;;;;23.25;47.94;100711.97;6288569;22;45341;-84
2021/08/09 01:27:46;;;;;;;;;2.25;2.25;;;;;23.19;47.62;100704.25;6342172;22;45527;-85
2021/08/09 01:30:11;;;;;;;;;3.50;2.75;;;;;23.19;47.55;100696.25;6288190;22;45211;-85
2021/08/09 01:32:38;;;;;;;;;4.00;2.50;;;;;23.19;47.38;100698.06;6314249;22;45147;-85
2021/08/09 01:35:06;;;;;;;;;4.50;3.00;;;;;23.19;47.36;100701.56;6314184;22;45282;-85
2021/08/09 01:37:32;;;;;;;;;3.00;2.25;;;;;23.25;46.75;100713.78;6288766;22;45306;-83
2021/08/09 01:39:57;;;;;;;;;4.50;3.75;;;;;23.22;47.33;100708.59;6313429;22;45402;-84
2021/08/09 01:42:23;;;;;;;;;5.25;2.00;;;;;23.26;47.86;100711.03;6261752;22;45449;-84
2021/08/09 01:44:48;;;;;;;;;4.25;3.50;;;;;23.25;47.53;100713.78;6287613;22;45365;-84
2021/08/09 01:47:13;;;;;;;;;2.00;2.00;;;;;23.24;47.74;100712.03;6287639;22;45434;-84
2021/08/09 01:49:39;;;;;;;;;6.75;4.50;;;;;23.22;47.89;100717.44;6287257;22;47898;-84
2021/08/09 01:52:05;;;;;;;;;4.00;3.00;;;;;23.23;47.69;100702.31;6261762;22;45321;-86
2021/08/09 01:54:30;;;;;;;;;3.00;3.00;;;;;23.31;47.83;100717.03;6313170;22;45288;-85
2021/08/09 01:56:56;;;;;;;;;4.25;3.25;;;;;23.34;47.41;100724.00;6314089;22;45412;-85
2021/08/09 01:59:21;;;;;;;;;4.50;4.50;;;;;23.23;47.82;100700.53;6287237;22;46122;-85
2021/08/09 02:01:47;;;;;;;;;1.00;1.00;;;;;23.21;47.55;100696.22;6313743;22;45421;-84
2021/08/09 02:04:13;;;;;;;;;2.00;2.00;;;;;23.31;47.80;100713.50;6314633;22;45223;-83
2021/08/09 02:06:38;;;;;;;;;3.00;3.00;;;;;23.27;47.37;100712.75;6312917;22;45447;-84
2021/08/09 02:09:07;;;;;;;;;4.75;2.25;;;;;23.25;47.91;100722.63;6313340;22;45462;-84
2021/08/09 02:12:09;;;;;;;;;3.00;3.00;;;;;23.25;47.67;100727.09;6287963;22;45298;-84
2021/08/09 02:14:40;;;;;;;;;3.75;2.75;;;;;23.24;47.41;100730.69;6314613;22;45405;-85
2021/08/09 02:17:13;;;;;;;;;2.00;1.50;;;;;23.20;48.09;100715.78;6286973;22;45113;-84
2021/08/09 02:19:58;;;;;;;;;3.00;3.00;;;;;23.22;48.18;100729.88;6314120;22;45377;-84
2021/08/09 02:22:53;;;;;;;;;3.00;3.00;;;;;23.18;47.94;100715.81;6287370;22;45684;-84
2021/08/09 02:25:21;;;;;;;;;3.50;2.00;;;;;23.12;47.77;100718.78;6287385;22;45528;-84
2021/08/09 02:27:50;;;;;;;;;3.50;3.50;;;;;23.11;47.90;100725.03;6314243;22;45229;-83
2021/08/09 02:30:18;;;;;;;;;2.50;1.50;;;;;23.01;47.38;100710.34;6287250;22;46660;-84
2021/08/09 02:32:44;;;;;;;;;4.25;4.00;;;;;22.96;48.20;100710.56;6313768;22;46115;-84
2021/08/09 02:35:15;;;;;;;;;4.00;3.00;;;;;23.00;48.37;100706.84;6288399;22;45343;-84
2021/08/09 02:37:41;;;;;;;;;2.25;2.25;;;;;23.05;48.59;100707.50;6287266;22;45450;-83
2021/08/09 02:40:07;;;;;;;;;4.50;3.00;;;;;23.03;48.57;100709.38;6312511;22;48288;-84
2021/08/09 02:42:32;;;;;;;;;6.50;2.00;;;;;23.06;48.80;100709.25;6287257;22;45405;-84
2021/08/09 02:44:58;;;;;;;;;3.00;2.25;;;;;23.01;48.91;100692.59;6313152;22;45263;-84
2021/08/09 02:47:24;;;;;;;;;7.25;3.50;;;;;23.11;49.09;100711.72;6286774;22;45349;-84
2021/08/09 02:49:52;;;;;;;;;3.50;3.00;;;;;23.13;48.51;100723.16;6260638;22;46489;-84
2021/08/09 02:52:18;;;;;;;;;3.50;3.00;;;;;23.09;49.15;100711.75;6286851;22;46012;-84
2021/08/09 02:54:45;;;;;;;;;3.50;3.50;;;;;23.14;49.24;100722.22;6313255;22;45137;-84
2021/08/09 02:57:12;;;;;;;;;3.00;2.25;;;;;23.16;49.20;100715.03;6313410;22;45369;-83
2021/08/09 02:59:37;;;;;;;;;3.00;2.25;;;;;23.16;48.53;100711.50;6312925;22;46189;-85
2021/08/09 03:02:04;;;;;;;;;5.25;3.00;;;;;23.14;48.74;100708.91;6312872;22;45408;-82
2021/08/09 03:04:29;;;;;;;;;2.25;2.25;;;;;23.26;48.85;100728.81;6287496;22;45350;-83
2021/08/09 03:06:55;;;;;;;;;3.00;3.00;;;;;23.19;48.57;100709.56;6312431;22;45739;-84
2021/08/09 03:09:20;;;;;;;;;3.25;2.25;;;;;23.27;48.15;100722.53;6286359;22;48057;-84
2021/08/09 03:11:46;;;;;;;;;5.50;3.25;;;;;23.18;48.49;100714.97;6260882;22;45231;-84
2021/08/09 03:14:22;;;;;;;;;3.50;3.00;;;;;23.14;48.67;100711.56;6260813;22;45234;-85
2021/08/09 03:16:48;;;;;;;;;2.75;2.50;;;;;23.14;48.32;100714.25;6312628;22;45405;-85
2021/08/09 03:19:13;;;;;;;;;4.00;2.25;;;;;23.16;48.02;100714.16;6314502;22;45147;-85
2021/08/09 03:21:38;;;;;;;;;4.50;3.00;;;;;23.20;48.62;100726.44;6315425;22;45166;-84
2021/08/09 03:24:04;;;;;;;;;4.50;2.50;;;;;23.19;48.58;100724.69;6314106;22;46084;-85
2021/08/09 03:26:29;;;;;;;;;3.00;3.00;;;;;23.15;48.69;100718.63;6314630;22;45451;-85
2021/08/09 03:28:55;;;;;;;;;3.75;3.00;;;;;23.20;48.74;100731.75;6287504;22;63589;-84
2021/08/09 03:31:20;;;;;;;;;3.50;2.25;;;;;23.12;48.61;100718.78;6314594;22;45266;-84
2021/08/09 03:33:46;;;;;;;;;4.75;3.00;;;;;23.13;48.79;100732.00;6288014;22;45395;-84
2021/08/09 03:36:11;;;;;;;;;2.50;2.50;;;;;23.06;48.64;100719.88;6287773;22;45220;-85
2021/08/09 03:38:36;;;;;;;;;5.00;4.00;;;;;23.06;48.79;100721.69;6313581;22;58146;-85
2021/08/09 03:41:02;;;;;;;;;6.00;2.75;;;;;23.14;49.18;100738.19;6261763;22;45853;-84
2021/08/09 03:43:27;;;;;;;;;2.75;2.75;;;;;23.09;48.96;100726.88;6288232;22;45408;-85
2021/08/09 03:45:53;;;;;;;;;3.50;3.50;;;;;23.12;48.90;100730.28;6342251;22;45361;-84
2021/08/09 03:48:19;;;;;;;;;2.00;2.00;;;;;23.07;48.72;100721.63;6287945;22;46998;-84
2021/08/09 03:50:44;;;;;;;;;4.00;2.00;;;;;23.08;48.94;100734.00;6287567;22;45422;-84
2021/08/09 03:53:09;;;;;;;;;2.00;2.00;;;;;23.02;48.40;100723.63;6288610;22;45366;-84
2021/08/09 03:55:35;;;;;;;;;3.25;3.00;;;;;23.09;49.00;100733.06;6261732;22;45287;-85
2021/08/09 03:58:00;;;;;;;;;3.25;2.50;;;;;22.96;48.57;100718.56;6287688;22;51371;-84
2021/08/09 04:00:27;;;;;;;;;3.00;3.00;;;;;22.97;48.65;100717.63;6314333;22;45176;-85
2021/08/09 04:02:52;;;;;;;;;3.00;2.00;;;;;22.96;49.01;100721.22;6314324;22;45248;-84
2021/08/09 04:05:17;;;;;;;;;3.00;2.75;;;;;23.00;49.02;100724.59;6313868;22;53504;-85
2021/08/09 04:07:43;;;;;;;;;3.25;2.75;;;;;22.97;49.31;100719.41;6314176;22;45169;-84
2021/08/09 04:10:11;;;;;;;;;6.00;3.00;;;;;23.04;49.40;100735.06;6316974;22;45183;-84
2021/08/09 04:12:37;;;;;;;;;5.50;3.00;;;;;23.02;49.33;100734.28;6288866;22;45438;-84
2021/08/09 04:15:02;;;;;;;;;3.25;3.25;;;;;23.03;49.03;100735.16;6314555;22;45337;-85
2021/08/09 04:17:28;;;;;;;;;3.50;1.75;;;;;23.03;49.44;100733.34;6314381;22;45262;-84
2021/08/09 04:19:53;;;;;;;;;4.00;3.25;;;;;23.07;49.71;100747.38;6287838;22;45347;-84
2021/08/09 04:22:19;;;;;;;;;2.75;2.75;;;;;23.01;49.34;100737.84;6314012;22;45353;-84
2021/08/09 04:24:44;;;;;;;;;3.00;3.00;;;;;23.03;49.18;100746.66;6287406;22;45438;-84
2021/08/09 04:27:09;;;;;;;;;2.00;2.00;;;;;23.09;48.45;100759.69;6287697;22;47766;-84
2021/08/09 04:29:35;;;;;;;;;3.00;2.50;;;;;22.99;48.40;100757.47;6341219;22;50081;-84
2021/08/09 04:32:00;;;;;;;;;3.25;3.25;;;;;23.04;49.00;100774.13;6313911;22;50042;-84
2021/08/09 04:34:26;;;;;;;;;4.00;2.00;;;;;23.00;48.56;100760.06;6313662;22;45182;-85
2021/08/09 04:36:51;;;;;;;;;4.50;3.00;;;;;22.99;49.07;100761.00;6287661;22;45885;-85
2021/08/09 04:39:16;;;;;;;;;4.00;2.50;;;;;23.03;48.68;100775.06;6287620;22;45181;-84
2021/08/09 04:41:42;;;;;;;;;3.25;3.00;;;;;22.95;49.20;100770.06;6340123;22;45614;-84
2021/08/09 04:44:07;;;;;;;;;3.25;2.00;;;;;22.97;49.10;100768.19;6314110;22;45206;-84
2021/08/09 04:46:35;;;;;;;;;4.00;2.75;;;;;22.95;48.87;100772.72;6287556;22;47780;-81
2021/08/09 04:49:00;;;;;;;;;4.00;4.00;;;;;22.92;49.13;100756.84;6288125;22;45383;-85
2021/08/09 04:51:26;;;;;;;;;7.75;4.00;;;;;22.97;49.22;100770.84;6314127;22;45706;-86
2021/08/09 04:53:51;;;;;;;;;2.25;2.25;;;;;22.94;49.42;100768.34;6287310;22;45371;-86
2021/08/09 04:56:17;;;;;;;;;2.25;2.25;;;;;23.00;49.44;100784.03;6261751;22;47221;-85
2021/08/09 04:58:42;;;;;;;;;4.00;2.75;;;;;22.95;48.68;100774.53;6287677;22;45248;-86
2021/08/09 05:01:08;;;;;;;;;6.50;4.25;;;;;22.91;50.00;100764.91;6314128;22;45247;-87
2021/08/09 05:03:40;;;;;;;;;5.00;3.50;;;;;22.95;49.91;100771.88;6287897;22;45628;-85
2021/08/09 05:06:09;;;;;;;;;4.50;3.75;;;;;22.92;50.63;100770.16;6287828;22;47493;-78
2021/08/09 05:08:34;;;;;;;;;7.25;4.25;;;;;22.97;50.98;100778.84;6313488;22;45343;-77
2021/08/09 05:11:00;;;;;;;;;6.00;3.00;;;;;23.04;52.34;100772.34;6313295;22;45387;-80
2021/08/09 05:13:25;;;;;;;;;5.50;4.00;;;;;23.11;53.11;100770.28;6313055;22;51995;-85
2021/08/09 05:15:51;;;;;;;;;5.25;4.00;;;;;23.14;53.68;100770.16;6288208;22;46526;-91
2021/08/09 05:18:16;;;;;;;;;6.25;4.75;;;;;23.31;53.88;100790.75;6288171;22;45524;-86
2021/08/09 05:20:42;;;;;;;;;6.00;4.00;;;;;23.35;52.38;100777.22;6262539;22;45201;-83
2021/08/09 05:23:10;;;;;;;;;13.75;12.00;;;;;23.40;53.24;100777.03;6314227;22;45179;-86
2021/08/09 05:25:35;;;;;;;;;6.25;6.25;;;;;23.54;52.75;100785.25;6287865;22;46168;-85
2021/08/09 05:28:01;;;;;;;;;4.25;4.25;;;;;23.63;52.84;100784.94;6314276;22;45329;-88
2021/08/09 05:30:29;;;;;;;;;8.75;6.00;;;;;23.69;52.28;100775.78;6288441;22;45274;-82
2021/08/09 05:32:55;;;;;;;;;4.75;3.00;;;;;23.73;51.88;100773.84;6287873;22;46429;-82
2021/08/09 05:35:20;;;;;;;;;5.50;4.00;;;;;23.66;52.65;100768.78;6313982;22;45214;-90
2021/08/09 05:37:46;;;;;;;;;8.25;5.00;;;;;23.67;52.50;100774.97;6287995;22;45274;-81
2021/08/09 05:40:11;;;;;;;;;4.00;3.50;;;;;23.69;51.79;100770.44;6286928;22;45177;-88
2021/08/09 05:42:37;;;;;;;;;7.00;6.00;;;;;23.61;52.40;100767.25;6313870;22;45437;-87
2021/08/09 05:45:04;;;;;;;;;4.00;3.00;;;;;23.61;52.58;100768.13;6313184;22;48615;-87
2021/08/09 05:47:30;;;;;;;;;6.00;5.00;;;;;23.58;50.37;100775.34;6288039;22;45243;-87
2021/08/09 05:49:56;;;;;;;;;3.50;3.50;;;;;23.42;49.12;100765.38;6288565;22;45221;-90
2021/08/09 05:52:22;;;;;;;;;2.25;2.25;;;;;23.27;48.27;100779.34;6316087;22;45362;-87
2021/08/09 05:54:49;;;;;;;;;4.25;3.00;;;;;23.09;48.99;100791.63;6287756;22;46166;-82
2021/08/09 05:57:15;;;;;;;;;5.25;2.50;;;;;22.94;48.85;100788.75;6342589;22;45348;-86
2021/08/09 05:59:40;;;;;;;;;1.75;1.75;;;;;22.76;49.09;100782.34;6287669;22;45245;-88
2021/08/09 06:02:08;;;;;;;;;4.50;2.50;;;;;22.63;49.44;100776.66;6262063;22;45304;-83
2021/08/09 06:04:34;;;;;;;;;3.50;3.00;;;;;22.54;49.67;100780.53;6312923;22;46772;-85
2021/08/09 06:06:59;;;;;;;;;6.50;4.00;;;;;22.63;50.71;100799.72;6287391;22;45204;-82
2021/08/09 06:09:25;;;;;;;;;4.00;4.00;;;;;22.65;50.85;100785.44;6313160;22;45717;-85
2021/08/09 06:11:50;;;;;;;;;4.00;4.00;;;;;22.83;50.80;100810.44;6287103;22;45672;-84
2021/08/09 06:14:54;;;;;;;;;6.25;5.00;;;;;22.91;50.36;100805.69;6287488;22;45435;-85
2021/08/09 06:17:20;;;;;;;;;4.25;3.00;;;;;22.88;50.08;100789.88;6281158;22;45175;-84
2021/08/09 06:19:46;;;;;;;;;5.00;5.00;;;;;22.89;50.57;100790.72;6261595;22;45399;-84
2021/08/09 06:22:11;;;;;;;;;6.50;4.75;;;;;23.03;49.94;100813.22;6287387;22;45342;-84
2021/08/09 06:24:37;;;;;;;;;5.50;2.75;;;;;22.98;50.29;100793.88;6262193;22;46936;-83
2021/08/09 06:27:02;;;;;;;;;2.50;2.50;;;;;23.05;49.81;100806.00;6289330;22;45420;-83
2021/08/09 06:29:28;;;;;;;;;3.00;3.00;;;;;23.10;49.58;100813.78;6287764;22;45272;-86
2021/08/09 06:31:53;;;;;;;;;4.75;3.75;;;;;23.07;49.87;100814.78;6287229;22;45503;-83
2021/08/09 06:34:19;;;;;;;;;4.00;2.00;;;;;23.02;49.69;100802.59;6286936;22;45964;-84
2021/08/09 06:36:44;;;;;;;;;3.25;2.00;;;;;22.99;49.62;100805.38;6313078;22;45176;-82
2021/08/09 06:39:12;;;;;;;;;5.00;3.25;;;;;23.06;49.99;100820.19;6313064;22;45819;-83
2021/08/09 06:41:37;;;;;;;;;5.00;2.50;;;;;23.04;49.91;100811.41;6287225;22;45651;-84
2021/08/09 06:44:03;;;;;;;;;5.00;3.00;;;;;23.11;49.94;100827.06;6313168;22;45771;-83
2021/08/09 06:46:29;;;;;;;;;5.00;2.75;;;;;23.01;49.66;100817.69;6339069;22;45205;-82
2021/08/09 06:48:55;;;;;;;;;2.00;0.00;;;;;23.05;49.67;100823.78;6286452;22;45237;-84
2021/08/09 06:51:20;;;;;;;;;4.00;4.00;;;;;23.12;50.01;100833.25;6262595;22;45839;-89
2021/08/09 06:53:46;;;;;;;;;4.25;3.25;;;;;23.09;49.89;100830.69;6297342;22;45489;-83
2021/08/09 06:56:15;;;;;;;;;4.50;4.00;;;;;23.06;49.66;100831.69;6299315;22;44773;-80
2021/08/09 06:58:42;;;;;;;;;4.75;4.75;;;;;23.01;49.07;100825.69;6288716;22;45344;-82
2021/08/09 07:01:07;;;;;;;;;3.50;3.50;;;;;22.96;50.04;100819.69;6262947;22;45189;-84
2021/08/09 07:03:32;;;;;;;;;2.50;2.50;;;;;22.97;50.26;100825.88;6340158;22;48208;-83
2021/08/09 07:05:58;;;;;;;;;6.50;4.75;;;;;22.91;50.03;100810.16;6314189;22;45210;-84
2021/08/09 07:08:23;;;;;;;;;4.50;4.25;;;;;22.95;49.59;100828.63;6313759;22;45162;-82
2021/08/09 07:10:51;;;;;;;;;5.25;4.25;;;;;23.00;49.55;100831.06;6289088;22;45239;-82
2021/08/09 07:13:16;;;;;;;;;5.25;4.00;;;;;22.96;50.18;100830.34;6325596;22;46245;-84
2021/08/09 07:15:42;;;;;;;;;7.00;5.00;;;;;22.90;49.76;100825.25;6321507;22;45259;-85
2021/08/09 07:18:07;;;;;;;;;6.25;5.00;;;;;22.94;50.47;100837.53;6288250;22;45696;-84
2021/08/09 07:20:35;;;;;;;;;6.00;4.75;;;;;22.90;50.50;100830.59;6288494;22;45382;-84
2021/08/09 07:23:01;;;;;;;;;6.00;5.00;;;;;22.91;50.08;100842.09;6314293;22;45195;-84
2021/08/09 07:25:29;;;;;;;;;3.50;3.50;;;;;22.83;50.20;100829.94;6314564;22;45177;-84
2021/08/09 07:28:01;;;;;;;;;6.50;4.00;;;;;22.87;50.33;100838.72;6314385;22;45240;-84
2021/08/09 07:30:26;;;;;;;;;4.00;3.25;;;;;22.94;50.53;100850.84;6288261;22;45152;-84
2021/08/09 07:32:52;;;;;;;;;3.75;3.00;;;;;22.89;50.28;100844.81;6262267;22;47110;-84
2021/08/09 07:35:17;;;;;;;;;4.25;3.00;;;;;22.88;50.29;100845.75;6314181;22;50924;-84
2021/08/09 07:37:42;;;;;;;;;5.25;3.00;;;;;22.89;50.47;100844.81;6287803;22;45669;-84
2021/08/09 07:40:08;;;;;;;;;4.50;3.00;;;;;22.91;50.41;100842.09;6287448;22;49849;-84
2021/08/09 07:42:34;;;;;;;;;4.75;4.25;;;;;22.94;50.43;100839.34;6288070;22;48242;-84
2021/08/09 07:44:59;;;;;;;;;6.00;4.25;;;;;22.99;50.86;100846.19;6314734;22;45234;-83
2021/08/09 07:47:25;;;;;;;;;4.00;3.50;;;;;22.96;50.81;100848.97;6313803;22;45215;-84
2021/08/09 07:49:53;;;;;;;;;8.25;4.75;;;;;22.96;50.38;100854.31;6261562;22;47732;-84
2021/08/09 07:52:21;;;;;;;;;4.50;4.00;;;;;22.94;50.29;100850.84;6288278;22;47063;-84
2021/08/09 07:54:46;;;;;;;;;3.25;3.25;;;;;22.94;50.92;100860.63;6341878;22;45092;-84
2021/08/09 07:57:14;;;;;;;;;2.00;2.00;;;;;22.96;50.49;100858.75;6342854;22;45227;-84
2021/08/09 07:59:42;;;;;;;;;3.00;3.00;;;;;22.91;50.82;100848.28;6314225;22;45404;-82
2021/08/09 08:02:10;;;;;;;;;4.25;3.00;;;;;22.94;50.56;100836.66;6262196;22;48512;-83
2021/08/09 08:04:35;;;;;;;;;4.75;3.00;;;;;22.89;50.57;100830.66;6288025;22;45237;-82
2021/08/09 08:07:01;;;;;;;;;5.75;4.00;;;;;22.91;50.85;100845.63;6314488;22;45524;-82
2021/08/09 08:09:27;;;;;;;;;5.25;3.75;;;;;22.84;50.37;100847.66;6287298;22;45476;-82
2021/08/09 08:11:52;;;;;;;;;4.00;4.00;;;;;22.87;51.16;100845.81;6313776;22;48104;-82
2021/08/09 08:14:23;;;;;;;;;2.50;2.50;;;;;22.82;50.58;100844.16;6287399;22;45437;-82
2021/08/09 08:16:48;;;;;;;;;4.25;4.25;;;;;22.86;50.50;100846.75;6286700;22;45380;-83
2021/08/09 08:19:19;;;;;;;;;5.25;5.00;;;;;22.89;51.08;100863.47;6287567;22;45411;-83
2021/08/09 08:21:45;;;;;;;;;2.25;2.25;;;;;22.85;50.90;100867.19;6289383;22;47429;-81
2021/08/09 08:24:10;;;;;;;;;5.50;4.25;;;;;22.83;50.72;100855.66;6315662;22;45539;-83
2021/08/09 08:26:36;;;;;;;;;4.75;4.25;;;;;22.71;50.48;100849.06;6312925;22;45417;-82
2021/08/09 08:29:04;;;;;;;;;4.25;3.50;;;;;22.68;50.69;100858.97;6287876;22;45347;-85
2021/08/09 08:31:29;;;;;;;;;2.25;2.25;;;;;22.61;50.73;100863.66;6315032;22;46218;-84
2021/08/09 08:33:58;;;;;;;;;4.25;4.25;;;;;22.51;50.91;100867.59;6314634;22;45349;-82
2021/08/09 08:36:23;;;;;;;;;5.50;4.00;;;;;22.42;50.41;100871.47;6288258;22;45153;-86
2021/08/09 08:38:49;;;;;;;;;3.25;3.25;;;;;22.36;50.46;100866.38;6313826;22;45528;-86
2021/08/09 08:41:15;;;;;;;;;3.75;3.00;;;;;22.28;50.73;100863.13;6288498;22;45381;-85
2021/08/09 08:43:41;;;;;;;;;5.50;4.25;;;;;22.14;50.37;100862.75;6288615;22;45369;-86
2021/08/09 08:46:07;;;;;;;;;6.50;4.00;;;;;22.20;50.96;100862.53;6314845;22;45215;-87
2021/08/09 08:48:39;;;;;;;;;5.25;4.75;;;;;22.13;51.42;100864.53;6313960;22;45354;-88
2021/08/09 08:51:16;;;;;;;;;6.00;4.00;;;;;22.11;51.59;100861.09;6314970;22;45345;-82
2021/08/09 08:53:45;;;;;;;;;5.00;5.00;;;;;22.05;51.73;100863.06;6340197;22;45523;-88
2021/08/09 08:56:21;;;;;;;;;4.00;4.00;;;;;22.02;51.27;100859.59;6286019;22;45384;-85
2021/08/09 08:58:46;;;;;;;;;5.50;4.00;;;;;22.02;51.44;100856.06;6290882;22;45560;-87
2021/08/09 09:01:12;;;;;;;;;4.50;4.00;;;;;;;;6287340;22;46159;-87
2021/08/09 09:03:39;;;;;;;;;6.50;6.00;;;;;22.16;51.54;100879.53;6285890;22;45268;-85
2021/08/09 09:06:09;;;;;;;;;3.25;3.25;;;;;22.12;51.28;100873.44;6287791;22;45466;-85
2021/08/09 09:08:45;;;;;;;;;3.75;1.75;;;;;22.13;51.16;100874.31;6287079;22;45509;-81
2021/08/09 09:11:32;;;;;;;;;3.00;3.00;;;;;22.18;51.02;100893.63;6313751;22;46244;-82
2021/08/09 09:14:05;;;;;;;;;2.50;2.50;;;;;22.08;50.74;100887.78;6313738;22;45770;-81
2021/08/09 09:16:43;;;;;;;;;3.50;2.75;;;;;22.16;50.89;100906.13;6288234;22;45380;-81
2021/08/09 09:19:08;;;;;;;;;4.75;4.00;;;;;22.11;50.81;100906.28;6341993;22;45163;-81
2021/08/09 09:21:37;;;;;;;;;4.50;3.50;;;;;22.11;51.19;100903.63;6287332;22;47124;-82
2021/08/09 09:24:21;;;;;;;;;3.75;3.75;;;;;22.16;51.42;100908.78;6313515;22;45455;-84
2021/08/09 09:27:07;;;;;;;;;7.00;4.75;;;;;22.10;50.99;100896.56;6314654;22;45366;-79
2021/08/09 09:29:36;;;;;;;;;3.50;3.50;;;;;22.12;50.98;100902.69;6290986;22;45577;-80
2021/08/09 09:32:20;;;;;;;;;5.00;4.00;;;;;22.16;50.99;100916.75;6288635;22;45887;-80
2021/08/09 09:34:50;;;;;;;;;6.75;5.00;;;;;22.07;50.77;100906.41;6341679;22;45368;-80
2021/08/09 09:37:29;;;;;;;;;3.00;3.00;;;;;22.18;51.17;100915.78;6314822;22;45382;-80
2021/08/09 09:40:17;;;;;;;;;5.25;5.25;;;;;22.14;50.79;100915.91;6313114;22;45196;-80
2021/08/09 09:42:42;;;;;;;;;3.50;3.25;;;;;22.11;51.22;100902.75;6341591;22;45941;-81
2021/08/09 09:45:27;;;;;;;;;4.00;4.00;;;;;22.03;51.12;100910.97;6313508;22;45241;-79
2021/08/09 09:48:06;;;;;;;;;3.00;3.00;;;;;22.08;51.08;100924.13;6264337;22;45483;-80
2021/08/09 09:50:33;;;;;;;;;3.25;3.25;;;;;22.11;51.45;100924.00;6324657;22;45350;-77
2021/08/09 09:53:15;;;;;;;;;3.75;3.75;;;;;22.06;51.32;100904.66;6295682;22;46941;-82
2021/08/09 09:55:41;;;;;;;;;5.75;4.25;;;;;22.15;51.38;100925.63;6320994;22;45203;-82
2021/08/09 09:58:07;;;;;;;;;3.00;3.00;;;;;22.18;51.34;100923.75;6287936;22;45302;-82
2021/08/09 10:00:32;;;;;;;;;3.50;2.25;;;;;22.15;51.40;100921.22;6287286;22;45354;-84
2021/08/09 10:02:57;;;;;;;;;4.25;3.00;;;;;22.13;51.11;100912.41;6287181;22;52979;-84
2021/08/09 10:05:23;;;;;;;;;4.50;4.50;;;;;22.12;50.68;100913.31;6313571;22;45346;-84
2021/08/09 10:07:48;;;;;;;;;4.00;3.00;;;;;22.15;50.80;100920.31;6287178;22;45255;-85
2021/08/09 10:10:14;;;;;;;;;4.00;3.00;;;;;22.14;50.64;100926.56;6313274;22;45528;-86
2021/08/09 10:12:44;;;;;;;;;2.75;2.50;;;;;22.11;50.28;100924.00;6285784;22;47098;-85
2021/08/09 10:15:09;;;;;;;;;6.00;4.50;;;;;22.07;50.79;100914.41;6313146;22;45183;-84
2021/08/09 10:17:36;;;;;;;;;3.00;3.00;;;;;22.12;50.56;100923.09;6313817;22;45120;-84
2021/08/09 10:20:05;;;;;;;;;4.00;3.00;;;;;22.12;50.40;100909.78;6287558;22;45476;-83
2021/08/09 10:22:30;;;;;;;;;4.00;2.00;;;;;22.14;50.77;100910.59;6313165;22;46533;-83
2021/08/09 10:24:56;;;;;;;;;4.00;3.00;;;;;22.13;50.31;100912.41;6283956;22;55578;-85
2021/08/09 10:27:47;;;;;;;;;2.00;2.00;;;;;22.20;50.32;100923.69;6288155;22;45169;-85
2021/08/09 10:30:15;;;;;;;;;4.50;2.50;;;;;22.19;50.42;100917.50;6342572;22;45478;-83
2021/08/09 10:32:50;;;;;;;;;3.75;3.00;;;;;22.20;50.49;100910.41;6314140;22;47117;-86
2021/08/09 10:35:38;;;;;;;;;4.75;3.75;;;;;22.25;49.75;100911.09;6289723;22;45399;-85
2021/08/09 10:38:14;;;;;;;;;3.75;2.50;;;;;22.15;49.83;100891.97;6342273;22;45210;-82
2021/08/09 10:40:43;;;;;;;;;4.25;3.00;;;;;22.21;49.97;100896.19;6262948;22;45385;-83
2021/08/09 10:43:09;;;;;;;;;3.00;3.00;;;;;22.29;50.31;100905.59;6289770;22;45326;-86
2021/08/09 10:45:40;;;;;;;;;2.00;2.00;;;;;22.28;49.58;100895.03;6315101;22;45207;-87
2021/08/09 10:48:06;;;;;;;;;3.25;2.75;;;;;22.31;49.53;100899.34;6288797;22;45218;-85
2021/08/09 10:50:31;;;;;;;;;3.25;3.25;;;;;22.41;49.84;100904.28;6342655;22;45339;-86
2021/08/09 10:52:57;;;;;;;;;3.50;3.50;;;;;22.39;49.76;100900.81;6313683;22;47122;-83
2021/08/09 10:55:31;;;;;;;;;3.75;2.50;;;;;22.42;49.38;100914.03;6288117;22;45617;-84
2021/08/09 10:58:02;;;;;;;;;3.00;3.00;;;;;22.41;49.68;100914.03;6314432;22;45226;-84
2021/08/09 11:00:39;;;;;;;;;3.00;3.00;;;;;22.40;49.35;100914.97;6315038;22;45423;-84
2021/08/09 11:03:12;;;;;;;;;8.75;5.00;;;;;22.34;49.47;100904.59;6340345;22;47244;-84
2021/08/09 11:05:37;;;;;;;;;3.00;3.00;;;;;22.36;49.65;100908.03;6314887;22;45124;-83
2021/08/09 11:08:18;;;;;;;;;3.75;2.25;;;;;22.36;49.58;100914.22;6288282;22;45625;-85
2021/08/09 11:11:06;;;;;;;;;2.00;2.00;;;;;22.30;49.85;100909.13;6316615;22;45429;-82
2021/08/09 11:13:37;;;;;;;;;7.00;3.25;;;;;22.35;49.68;100911.63;6288415;22;46386;-81
2021/08/09 11:16:06;;;;;;;;;3.25;2.75;;;;;22.28;49.64;100895.03;6342258;22;45350;-83
2021/08/09 11:18:33;;;;;;;;;6.00;3.00;;;;;22.26;50.18;100886.25;6288211;22;45192;-81
2021/08/09 11:21:05;;;;;;;;;3.00;3.00;;;;;22.41;50.21;100893.63;6262778;22;45521;-80
2021/08/09 11:23:41;;;;;;;;;3.50;2.50;;;;;22.48;50.20;100903.13;6339894;22;46195;-82
2021/08/09 11:26:07;;;;;;;;;4.00;4.00;;;;;22.53;49.63;100897.66;6289552;22;45138;-82
2021/08/09 11:28:32;;;;;;;;;3.00;3.00;;;;;22.51;49.08;100884.41;6296354;22;45219;-80
2021/08/09 11:30:59;;;;;;;;;3.00;3.00;;;;;22.63;49.54;100900.81;6342338;22;45485;-81